Time;durP1;ratioP1;P1;durP2;ratioP2;P2;SDS_P1;SDS_P2;PMS_P1;PMS_P2;Temp;Humidity;BMP_temperature;BMP_pressure;BME280_temperature;BME280_humidity;BME280_pressure;Samples;Min_cycle;Max_cycle;Signal;HPM_P1;HPM_P2
2021/01/09 00:00:45;;;;;;;8.57;5.47;;;-6.70;68.80;;;;;;5163600;28;20657;-73
2021/01/09 00:03:17;;;;;;;7.18;5.32;;;-6.70;68.60;;;;;;5147018;28;20048;-74
2021/01/09 00:05:51;;;;;;;8.75;6.18;;;-6.70;69.20;;;;;;5146702;28;20049;-74
2021/01/09 00:08:23;;;;;;;7.60;5.68;;;-6.70;69.50;;;;;;5162610;28;20618;-73
2021/01/09 00:10:54;;;;;;;9.25;6.13;;;-6.60;69.50;;;;;;5159060;28;20386;-74
2021/01/09 00:13:26;;;;;;;7.38;5.68;;;-6.60;68.80;;;;;;5162379;28;20123;-71
2021/01/09 00:15:57;;;;;;;7.30;5.72;;;-6.60;68.40;;;;;;5161467;28;20108;-75
2021/01/09 00:18:28;;;;;;;7.07;5.90;;;-6.60;68.30;;;;;;5161350;28;20285;-74
2021/01/09 00:21:00;;;;;;;7.35;5.70;;;-6.70;68.30;;;;;;5159376;28;20062;-75
2021/01/09 00:23:32;;;;;;;7.93;5.78;;;-6.70;68.40;;;;;;5164147;28;20054;-74
2021/01/09 00:26:03;;;;;;;7.47;5.43;;;-6.80;68.70;;;;;;5165427;28;20057;-75
2021/01/09 00:28:35;;;;;;;11.55;6.40;;;-6.70;69.20;;;;;;5162574;28;20038;-74
2021/01/09 00:31:06;;;;;;;12.65;8.00;;;-6.80;69.00;;;;;;5162551;28;20125;-73
2021/01/09 00:33:38;;;;;;;12.48;7.22;;;-6.70;68.90;;;;;;5164961;28;20117;-74
2021/01/09 00:36:09;;;;;;;10.55;6.68;;;-6.70;68.60;;;;;;5163967;28;20046;-74
2021/01/09 00:38:41;;;;;;;7.40;5.45;;;-6.70;67.90;;;;;;5166748;28;20881;-73
2021/01/09 00:41:12;;;;;;;11.88;7.28;;;-6.70;68.60;;;;;;5165632;28;20154;-74
2021/01/09 00:43:44;;;;;;;8.45;5.75;;;-6.70;68.50;;;;;;5167575;28;20034;-73
2021/01/09 00:46:16;;;;;;;8.23;6.15;;;-6.80;67.70;;;;;;5162537;28;20050;-74
2021/01/09 00:48:48;;;;;;;9.20;6.35;;;-6.80;68.10;;;;;;5163009;28;20038;-74
2021/01/09 00:51:20;;;;;;;9.50;6.07;;;-6.80;67.90;;;;;;5164410;28;20050;-75
2021/01/09 00:53:51;;;;;;;8.85;5.75;;;-6.80;68.50;;;;;;5146922;28;20049;-74
2021/01/09 00:56:23;;;;;;;7.93;5.43;;;-6.90;69.00;;;;;;5164263;28;20042;-74
2021/01/09 00:58:54;;;;;;;7.85;6.03;;;-6.90;68.50;;;;;;5163576;28;20078;-74
2021/01/09 01:01:26;;;;;;;8.60;5.50;;;-7.00;68.40;;;;;;5164906;28;20050;-73
2021/01/09 01:03:57;;;;;;;7.65;5.57;;;-6.90;68.80;;;;;;5164581;28;20050;-74
2021/01/09 01:06:29;;;;;;;7.88;5.65;;;-6.80;68.10;;;;;;5165835;28;20575;-75
2021/01/09 01:09:00;;;;;;;7.57;5.60;;;-6.80;67.70;;;;;;5163981;28;20880;-74
2021/01/09 01:11:32;;;;;;;6.65;5.00;;;-6.90;67.40;;;;;;5162279;28;20049;-74
2021/01/09 01:14:03;;;;;;;7.28;5.32;;;-6.90;67.90;;;;;;5163479;28;20041;-74
2021/01/09 01:16:35;;;;;;;8.48;5.15;;;-7.00;67.70;;;;;;5160871;28;20066;-74
2021/01/09 01:19:07;;;;;;;7.45;5.13;;;-7.10;68.70;;;;;;5163283;28;20092;-73
2021/01/09 01:21:39;;;;;;;8.35;5.45;;;-7.10;68.80;;;;;;5162370;28;20129;-73
2021/01/09 01:24:11;;;;;;;7.32;5.43;;;-7.20;68.70;;;;;;5163820;28;20146;-72
2021/01/09 01:26:43;;;;;;;7.57;5.43;;;-7.30;68.30;;;;;;5162541;28;20403;-73
2021/01/09 01:29:15;;;;;;;7.80;5.45;;;-7.40;68.20;;;;;;5161980;28;20793;-73
2021/01/09 01:31:46;;;;;;;7.15;4.88;;;-7.50;69.30;;;;;;5150873;28;20128;-73
2021/01/09 01:34:18;;;;;;;7.25;5.00;;;-7.50;69.30;;;;;;5163164;28;20042;-73
2021/01/09 01:36:49;;;;;;;6.88;5.03;;;-7.50;69.90;;;;;;5161961;28;20050;-74
2021/01/09 01:39:21;;;;;;;7.88;5.13;;;-7.50;70.70;;;;;;5162653;28;20058;-73
2021/01/09 01:41:55;;;;;;;14.60;8.05;;;-7.50;69.70;;;;;;5160263;28;20050;-73
2021/01/09 01:44:30;;;;;;;11.57;7.43;;;-7.50;68.30;;;;;;5145683;28;20507;-72
2021/01/09 01:47:02;;;;;;;21.95;10.10;;;-7.40;67.90;;;;;;5160814;28;20060;-75
2021/01/09 01:49:35;;;;;;;18.15;9.02;;;-7.30;68.10;;;;;;5151046;28;20053;-73
2021/01/09 01:52:09;;;;;;;9.02;6.00;;;-7.30;67.90;;;;;;5160769;28;20062;-73
2021/01/09 01:54:44;;;;;;;8.45;5.88;;;-7.20;67.70;;;;;;5166766;28;20038;-73
2021/01/09 01:57:15;;;;;;;8.55;5.95;;;-7.30;68.10;;;;;;5162895;28;20050;-72
2021/01/09 01:59:47;;;;;;;7.60;5.35;;;-7.20;67.60;;;;;;5151873;28;20204;-73
2021/01/09 02:02:19;;;;;;;8.45;6.13;;;-7.20;67.70;;;;;;5164583;28;20104;-74
2021/01/09 02:04:58;;;;;;;8.85;5.30;;;-7.30;68.70;;;;;;5162737;28;20137;-73
2021/01/09 02:07:38;;;;;;;7.00;5.05;;;-7.20;68.70;;;;;;5161894;28;20058;-72
2021/01/09 02:10:10;;;;;;;8.25;5.50;;;-7.20;69.30;;;;;;5162926;28;20074;-73
2021/01/09 02:12:57;;;;;;;10.07;6.53;;;-7.20;68.40;;;;;;5162855;28;20529;-73
2021/01/09 02:15:30;;;;;;;11.23;7.13;;;-7.20;67.50;;;;;;5163709;28;20041;-72
2021/01/09 02:18:02;;;;;;;13.25;6.35;;;-7.20;67.00;;;;;;5161143;28;20038;-72
2021/01/09 02:20:36;;;;;;;7.10;5.47;;;-7.20;67.10;;;;;;5159533;28;20741;-73
2021/01/09 02:23:08;;;;;;;7.47;5.50;;;-7.20;67.50;;;;;;5158570;28;20132;-72
2021/01/09 02:25:40;;;;;;;7.72;4.90;;;-7.30;68.30;;;;;;5145256;28;20411;-72
2021/01/09 02:28:11;;;;;;;7.20;5.20;;;-7.40;67.70;;;;;;5163616;28;20065;-73
2021/01/09 02:30:47;;;;;;;8.32;5.57;;;-7.40;67.70;;;;;;5163060;28;20050;-75
2021/01/09 02:33:21;;;;;;;7.55;5.35;;;-7.40;67.40;;;;;;5163870;28;20049;-74
2021/01/09 02:35:53;;;;;;;7.38;5.47;;;-7.30;67.50;;;;;;5164007;28;20545;-72
2021/01/09 02:38:25;;;;;;;7.25;5.32;;;-7.40;68.20;;;;;;5163575;28;20169;-72
2021/01/09 02:40:57;;;;;;;7.72;5.38;;;-7.50;68.30;;;;;;5165587;28;20046;-73
2021/01/09 02:43:28;;;;;;;8.43;5.35;;;-7.60;68.60;;;;;;5161499;28;20047;-72
2021/01/09 02:46:00;;;;;;;9.30;5.32;;;-7.60;69.00;;;;;;5162289;28;20471;-73
2021/01/09 02:48:32;;;;;;;7.85;5.35;;;-7.60;69.80;;;;;;5164301;28;20456;-73
2021/01/09 02:51:03;;;;;;;8.07;5.20;;;-7.60;69.60;;;;;;5159124;28;20038;-74
2021/01/09 02:53:35;;;;;;;11.00;6.78;;;-7.70;69.40;;;;;;5135007;28;20787;-73
2021/01/09 02:56:07;;;;;;;11.30;7.07;;;-7.70;69.30;;;;;;5159535;28;20046;-74
2021/01/09 02:58:38;;;;;;;7.97;5.45;;;-7.60;69.20;;;;;;5157325;28;20043;-76
2021/01/09 03:01:10;;;;;;;8.60;5.85;;;-7.70;68.90;;;;;;5161518;28;20120;-72
2021/01/09 03:03:41;;;;;;;8.63;6.18;;;-7.70;68.80;;;;;;5146550;28;20037;-73
2021/01/09 03:06:13;;;;;;;9.10;6.07;;;-7.70;68.30;;;;;;5160470;28;21281;-73
2021/01/09 03:08:44;;;;;;;11.00;6.30;;;-7.70;68.00;;;;;;5158064;28;20045;-73
2021/01/09 03:11:16;;;;;;;8.43;5.72;;;-7.70;67.60;;;;;;5163308;28;20755;-73
2021/01/09 03:13:48;;;;;;;7.93;5.35;;;-7.70;67.40;;;;;;5163314;28;20069;-74
2021/01/09 03:16:19;;;;;;;7.00;5.00;;;-7.70;68.00;;;;;;5163726;28;20050;-73
2021/01/09 03:18:51;;;;;;;8.38;5.70;;;-7.80;69.00;;;;;;5165426;28;20500;-74
2021/01/09 03:21:22;;;;;;;6.50;4.63;;;-7.70;69.70;;;;;;5163858;28;20064;-74
2021/01/09 03:23:54;;;;;;;6.78;4.90;;;-7.70;69.80;;;;;;5163334;28;20616;-74
2021/01/09 03:26:25;;;;;;;6.90;5.05;;;-7.70;69.40;;;;;;5159542;28;20528;-74
2021/01/09 03:28:57;;;;;;;8.00;5.57;;;-7.70;68.80;;;;;;5163059;28;20041;-74
2021/01/09 03:31:28;;;;;;;7.63;4.72;;;-7.70;68.00;;;;;;5163891;28;20050;-74
2021/01/09 03:34:00;;;;;;;7.45;4.95;;;-7.70;67.80;;;;;;5164342;28;20041;-75
2021/01/09 03:36:32;;;;;;;9.95;5.03;;;-7.70;67.80;;;;;;5160737;28;20046;-75
2021/01/09 03:39:04;;;;;;;7.90;5.20;;;-7.80;67.50;;;;;;5159242;28;20038;-76
2021/01/09 03:41:39;;;;;;;7.70;5.20;;;-7.80;67.70;;;;;;5140857;28;20042;-74
2021/01/09 03:44:10;;;;;;;7.78;5.20;;;-7.80;67.90;;;;;;5159691;28;20077;-75
2021/01/09 03:46:43;;;;;;;7.05;4.82;;;-7.80;69.10;;;;;;5159340;28;20045;-74
2021/01/09 03:49:15;;;;;;;7.57;5.38;;;-7.90;70.30;;;;;;5147512;28;20627;-74
2021/01/09 03:51:46;;;;;;;7.38;5.20;;;-7.80;70.40;;;;;;5160117;28;20053;-75
2021/01/09 03:54:17;;;;;;;8.05;5.28;;;-7.80;70.40;;;;;;5164376;28;20037;-74
2021/01/09 03:56:49;;;;;;;7.65;5.70;;;-7.80;70.60;;;;;;5163001;28;20054;-75
2021/01/09 03:59:21;;;;;;;6.75;4.85;;;-7.80;69.50;;;;;;5163845;28;20570;-74
2021/01/09 04:01:53;;;;;;;7.38;5.20;;;-7.90;69.10;;;;;;5161911;28;20049;-74
2021/01/09 04:04:24;;;;;;;10.20;6.80;;;-8.00;69.20;;;;;;5142104;28;20123;-72
2021/01/09 04:06:56;;;;;;;19.45;8.18;;;-8.00;67.70;;;;;;5150821;28;20042;-74
2021/01/09 04:09:27;;;;;;;9.57;5.30;;;-8.00;67.30;;;;;;5165167;28;20504;-75
2021/01/09 04:11:59;;;;;;;8.48;5.82;;;-8.10;66.80;;;;;;5151135;28;20077;-73
2021/01/09 04:14:31;;;;;;;10.27;6.32;;;-8.10;67.30;;;;;;5158899;28;20046;-74
2021/01/09 04:17:02;;;;;;;8.35;5.82;;;-8.00;67.30;;;;;;5157943;28;20042;-75
2021/01/09 04:19:34;;;;;;;8.50;5.90;;;-8.00;67.10;;;;;;5145812;28;20042;-74
2021/01/09 04:22:06;;;;;;;11.52;6.13;;;-8.00;67.10;;;;;;5158408;28;20042;-74
2021/01/09 04:24:37;;;;;;;8.02;5.10;;;-8.00;66.90;;;;;;5158777;28;20046;-76
2021/01/09 04:27:09;;;;;;;7.00;5.07;;;-8.00;66.50;;;;;;5161847;28;20085;-75
2021/01/09 04:29:41;;;;;;;13.40;6.75;;;-8.00;67.30;;;;;;5159607;28;20046;-75
2021/01/09 04:32:12;;;;;;;9.13;5.90;;;-8.10;67.00;;;;;;5162235;28;20042;-75
2021/01/09 04:34:47;;;;;;;10.27;6.00;;;-8.10;66.60;;;;;;5157838;28;20041;-75
2021/01/09 04:37:21;;;;;;;8.60;5.72;;;-8.10;66.70;;;;;;5163435;28;20552;-75
2021/01/09 04:39:53;;;;;;;11.02;5.72;;;-8.10;66.60;;;;;;5145414;28;20401;-75
2021/01/09 04:42:24;;;;;;;9.25;5.00;;;-8.10;66.80;;;;;;5157930;28;20574;-75
2021/01/09 04:44:56;;;;;;;9.52;5.47;;;-8.00;66.30;;;;;;5158886;28;20038;-75
2021/01/09 04:47:29;;;;;;;7.68;5.15;;;-8.00;66.10;;;;;;5162493;28;20658;-75
2021/01/09 04:50:01;;;;;;;7.70;5.00;;;-8.00;66.10;;;;;;5158690;28;20047;-73
2021/01/09 04:52:34;;;;;;;8.18;5.35;;;-8.10;66.00;;;;;;5159614;28;20081;-75
2021/01/09 04:55:06;;;;;;;9.20;5.80;;;-8.10;67.20;;;;;;5158868;28;20050;-74
2021/01/09 04:57:38;;;;;;;8.52;5.28;;;-8.10;66.20;;;;;;5159178;28;20058;-74
2021/01/09 05:00:10;;;;;;;8.43;5.53;;;-8.20;66.50;;;;;;5160632;28;20054;-74
2021/01/09 05:02:42;;;;;;;7.53;5.45;;;-8.20;66.50;;;;;;5159167;28;20096;-74
2021/01/09 05:05:13;;;;;;;7.95;5.55;;;-8.20;65.90;;;;;;5160034;28;20100;-73
2021/01/09 05:07:45;;;;;;;7.18;5.13;;;-8.30;66.00;;;;;;5161186;28;20042;-73
2021/01/09 05:10:16;;;;;;;9.82;5.43;;;-8.40;66.20;;;;;;5165830;28;20065;-72
2021/01/09 05:12:49;;;;;;;7.57;4.50;;;-8.40;66.20;;;;;;5164536;28;20065;-72
2021/01/09 05:15:20;;;;;;;9.68;5.43;;;-8.50;66.20;;;;;;5162795;28;20141;-71
2021/01/09 05:17:52;;;;;;;8.43;5.28;;;-8.50;66.20;;;;;;5164832;28;20046;-71
2021/01/09 05:20:24;;;;;;;10.45;5.55;;;-8.50;66.00;;;;;;5165156;28;20054;-71
2021/01/09 05:22:56;;;;;;;7.78;5.22;;;-8.40;65.80;;;;;;5163779;28;20061;-71
2021/01/09 05:25:28;;;;;;;10.02;5.60;;;-8.40;65.60;;;;;;5162030;28;20135;-72
2021/01/09 05:28:00;;;;;;;8.38;5.15;;;-8.40;65.60;;;;;;5163787;28;20042;-72
2021/01/09 05:30:33;;;;;;;7.28;4.93;;;-8.50;65.90;;;;;;5168836;28;20050;-74
2021/01/09 05:33:04;;;;;;;12.38;6.05;;;-8.60;66.20;;;;;;5163827;28;20650;-75
2021/01/09 05:35:36;;;;;;;7.55;4.75;;;-8.60;66.40;;;;;;5162018;28;20420;-72
2021/01/09 05:38:08;;;;;;;8.15;5.10;;;-8.60;66.60;;;;;;5163948;28;20038;-73
2021/01/09 05:40:39;;;;;;;8.88;5.28;;;-8.60;67.10;;;;;;5160925;28;20046;-72
2021/01/09 05:43:11;;;;;;;7.47;5.28;;;-8.60;68.10;;;;;;5164494;28;20133;-73
2021/01/09 05:45:43;;;;;;;8.63;5.28;;;-8.70;68.40;;;;;;5162067;28;20057;-73
2021/01/09 05:48:16;;;;;;;9.45;5.38;;;-8.70;68.00;;;;;;5145795;28;20042;-73
2021/01/09 05:50:49;;;;;;;7.07;4.95;;;-8.60;67.50;;;;;;5163645;28;20119;-73
2021/01/09 05:53:36;;;;;;;7.88;4.72;;;-8.70;67.90;;;;;;5162993;28;20037;-75
2021/01/09 05:56:12;;;;;;;7.45;5.00;;;-8.70;67.90;;;;;;5166971;28;20067;-73
2021/01/09 05:58:45;;;;;;;6.70;4.82;;;-8.70;68.40;;;;;;5160861;28;20752;-71
2021/01/09 06:01:20;;;;;;;6.55;4.47;;;-8.70;68.60;;;;;;5163234;28;20108;-73
2021/01/09 06:04:06;;;;;;;8.30;5.38;;;-8.70;68.60;;;;;;5165452;28;20038;-72
2021/01/09 06:06:55;;;;;;;7.55;4.93;;;-8.70;67.30;;;;;;5162978;28;20046;-71
2021/01/09 06:09:34;;;;;;;11.02;5.20;;;-8.70;67.10;;;;;;5164616;28;20578;-71
2021/01/09 06:12:07;;;;;;;7.93;5.38;;;-8.60;67.50;;;;;;5164210;28;20986;-73
2021/01/09 06:14:45;;;;;;;8.60;5.57;;;-8.60;67.40;;;;;;5162771;28;20045;-72
2021/01/09 06:17:20;;;;;;;7.72;4.82;;;-8.60;67.70;;;;;;5145601;28;20121;-73
2021/01/09 06:19:52;;;;;;;10.25;5.78;;;-8.70;69.60;;;;;;5147043;28;20049;-73
2021/01/09 06:22:24;;;;;;;10.38;6.20;;;-8.90;68.80;;;;;;5162265;28;20046;-75
2021/01/09 06:24:56;;;;;;;7.38;5.07;;;-8.90;68.50;;;;;;5163797;28;20038;-72
2021/01/09 06:27:31;;;;;;;7.40;5.22;;;-8.90;68.30;;;;;;5162535;28;20101;-73
2021/01/09 06:30:04;;;;;;;6.60;4.72;;;-8.80;68.20;;;;;;5137348;28;20062;-72
2021/01/09 06:32:39;;;;;;;6.85;4.75;;;-8.80;69.00;;;;;;5163771;28;20056;-73
2021/01/09 06:35:11;;;;;;;9.07;5.20;;;-8.80;68.30;;;;;;5163187;28;20697;-73
2021/01/09 06:37:42;;;;;;;6.28;4.70;;;-8.70;68.30;;;;;;5151867;28;20053;-72
2021/01/09 06:40:15;;;;;;;8.98;6.10;;;-8.70;68.10;;;;;;5167042;28;20139;-74
2021/01/09 06:42:48;;;;;;;9.57;5.40;;;-8.70;69.70;;;;;;5161642;28;20042;-75
2021/01/09 06:45:20;;;;;;;6.65;4.75;;;-8.80;70.60;;;;;;5162881;28;20077;-75
2021/01/09 06:48:00;;;;;;;7.78;5.18;;;-8.80;70.70;;;;;;5162440;28;20103;-73
2021/01/09 06:50:33;;;;;;;;;;;-8.80;70.60;;;;;;5163571;28;20652;-74
2021/01/09 06:53:13;;;;;;;8.65;5.40;;;-8.80;70.10;;;;;;5165897;28;19925;-74
2021/01/09 06:55:44;;;;;;;6.95;4.63;;;-8.80;70.70;;;;;;5161038;28;20117;-74
2021/01/09 06:58:16;;;;;;;8.00;4.75;;;-8.80;70.60;;;;;;5163613;28;20078;-74
2021/01/09 07:00:47;;;;;;;7.32;5.15;;;-8.70;69.30;;;;;;5161808;28;20049;-74
2021/01/09 07:03:23;;;;;;;8.18;5.60;;;-8.70;68.90;;;;;;5160740;28;20056;-75
2021/01/09 07:05:54;;;;;;;10.88;5.88;;;-8.70;67.90;;;;;;5161089;28;20124;-75
2021/01/09 07:08:30;;;;;;;7.22;4.90;;;-8.60;67.50;;;;;;5162259;28;20037;-74
2021/01/09 07:11:07;;;;;;;9.23;5.63;;;-8.60;66.60;;;;;;5160659;28;20101;-75
2021/01/09 07:13:39;;;;;;;8.07;5.22;;;-8.60;66.80;;;;;;5162747;28;20039;-74
2021/01/09 07:16:14;;;;;;;10.82;5.22;;;-8.70;66.50;;;;;;5161348;28;20038;-74
2021/01/09 07:18:48;;;;;;;6.55;4.35;;;-8.70;66.50;;;;;;5161804;28;20128;-75
2021/01/09 07:21:20;;;;;;;6.57;4.47;;;-8.80;68.50;;;;;;5163630;28;20053;-74
2021/01/09 07:23:55;;;;;;;7.80;5.30;;;-8.80;69.40;;;;;;5161918;28;20049;-74
2021/01/09 07:26:27;;;;;;;11.77;6.90;;;-8.80;69.70;;;;;;5163078;28;20060;-74
2021/01/09 07:29:03;;;;;;;14.13;7.82;;;-8.80;69.50;;;;;;5164574;28;20054;-74
2021/01/09 07:31:39;;;;;;;8.80;5.38;;;-8.80;68.10;;;;;;5163158;28;20108;-74
2021/01/09 07:34:13;;;;;;;8.50;5.50;;;-8.80;68.10;;;;;;5165938;28;20042;-76
2021/01/09 07:36:47;;;;;;;8.65;5.22;;;-8.90;67.80;;;;;;5161103;28;20500;-76
2021/01/09 07:39:24;;;;;;;7.03;4.70;;;-8.90;68.00;;;;;;5157834;28;20047;-77
2021/01/09 07:41:56;;;;;;;6.63;4.45;;;-8.90;68.50;;;;;;5157059;28;20050;-75
2021/01/09 07:44:31;;;;;;;6.82;4.63;;;-8.80;68.90;;;;;;5158621;28;20477;-76
2021/01/09 07:47:05;;;;;;;7.03;4.55;;;-8.80;70.00;;;;;;5151009;28;20057;-76
2021/01/09 07:49:37;;;;;;;8.50;4.68;;;-8.80;69.60;;;;;;5155990;28;20039;-75
2021/01/09 07:52:09;;;;;;;7.85;4.03;;;-8.80;69.70;;;;;;5156655;28;21395;-76
2021/01/09 07:54:46;;;;;;;6.95;4.50;;;-8.80;70.00;;;;;;5155470;28;20046;-76
2021/01/09 07:57:17;;;;;;;6.60;4.15;;;-8.70;70.30;;;;;;5145256;28;20048;-76
2021/01/09 07:59:55;;;;;;;11.52;6.75;;;-8.70;69.40;;;;;;5155677;28;20038;-77
2021/01/09 08:02:32;;;;;;;15.40;8.18;;;-8.70;68.30;;;;;;5156075;28;20050;-75
2021/01/09 08:05:06;;;;;;;14.57;7.63;;;-8.60;66.60;;;;;;5155077;28;20552;-75
2021/01/09 08:08:02;;;;;;;14.65;7.97;;;-8.60;66.80;;;;;;5156253;28;20046;-75
2021/01/09 08:10:34;;;;;;;15.30;7.95;;;-8.60;66.80;;;;;;5156281;28;20049;-77
2021/01/09 08:13:08;;;;;;;15.98;7.82;;;-8.50;66.50;;;;;;5157638;28;20287;-75
2021/01/09 08:15:39;;;;;;;13.20;7.28;;;-8.40;66.70;;;;;;5155735;28;20038;-76
2021/01/09 08:18:11;;;;;;;13.77;8.13;;;-8.30;66.60;;;;;;5154208;28;20504;-77
2021/01/09 08:20:48;;;;;;;16.30;9.35;;;-8.30;66.50;;;;;;5144240;28;20041;-77
2021/01/09 08:23:20;;;;;;;12.25;7.82;;;-8.20;66.60;;;;;;5164937;28;20451;-76
2021/01/09 08:25:53;;;;;;;13.45;7.18;;;-8.20;66.30;;;;;;5160947;28;20810;-77
2021/01/09 08:28:25;;;;;;;10.50;6.05;;;-8.10;66.20;;;;;;5158211;28;20629;-76
2021/01/09 08:30:59;;;;;;;10.38;6.10;;;-8.10;66.20;;;;;;5161393;28;20046;-78
2021/01/09 08:33:31;;;;;;;8.95;5.32;;;-8.20;65.80;;;;;;5161337;28;20113;-76
2021/01/09 08:36:05;;;;;;;11.90;5.68;;;-8.20;66.60;;;;;;5152293;28;20035;-78
2021/01/09 08:38:37;;;;;;;12.38;7.20;;;-8.10;66.80;;;;;;5147772;28;20105;-74
2021/01/09 08:41:09;;;;;;;15.13;8.80;;;-8.00;66.70;;;;;;5149349;28;20524;-74
2021/01/09 08:43:41;;;;;;;15.50;7.28;;;-7.90;66.80;;;;;;5159788;28;20841;-74
2021/01/09 08:46:13;;;;;;;12.98;6.80;;;-7.80;66.50;;;;;;5162904;28;20054;-74
2021/01/09 08:48:45;;;;;;;12.93;6.63;;;-7.80;66.50;;;;;;5148192;28;20516;-74
2021/01/09 08:51:18;;;;;;;11.82;6.38;;;-7.60;66.00;;;;;;5122271;28;20061;-75
2021/01/09 08:54:00;;;;;;;11.77;5.65;;;-7.60;66.00;;;;;;5161872;28;20034;-77
2021/01/09 08:56:33;;;;;;;10.35;5.72;;;-7.50;66.10;;;;;;5163596;28;20052;-74
2021/01/09 08:59:10;;;;;;;11.80;6.72;;;-7.40;65.40;;;;;;5161799;28;20154;-75
2021/01/09 09:01:46;;;;;;;11.02;6.10;;;-7.40;65.60;;;;;;5163835;28;20123;-75
2021/01/09 09:04:20;;;;;;;9.65;6.28;;;-7.30;65.30;;;;;;5164811;28;20129;-76
2021/01/09 09:06:59;;;;;;;11.82;7.20;;;-7.30;65.00;;;;;;5164039;28;20042;-77
2021/01/09 09:09:33;;;;;;;14.15;7.03;;;-7.30;64.70;;;;;;5164978;28;20048;-81
2021/01/09 09:12:10;;;;;;;12.75;6.72;;;-7.20;65.70;;;;;;5162161;28;20125;-77
2021/01/09 09:14:57;;;;;;;11.40;6.38;;;-7.10;64.80;;;;;;5165313;28;20502;-75
2021/01/09 09:17:29;;;;;;;12.93;6.63;;;-7.30;65.00;;;;;;5165736;28;20049;-76
2021/01/09 09:20:00;;;;;;;10.23;5.90;;;-7.40;66.20;;;;;;5154490;28;20046;-74
2021/01/09 09:22:32;;;;;;;9.48;6.00;;;-7.30;66.30;;;;;;5165095;28;20050;-77
2021/01/09 09:25:05;;;;;;;14.55;6.40;;;-7.10;66.10;;;;;;5164503;28;20121;-79
2021/01/09 09:27:36;;;;;;;10.82;6.82;;;-7.00;65.30;;;;;;5164295;28;20043;-76
2021/01/09 09:30:14;;;;;;;11.50;7.35;;;-7.20;65.50;;;;;;5167558;28;20037;-76
2021/01/09 09:32:46;;;;;;;10.05;6.25;;;-7.20;65.80;;;;;;5165283;28;20042;-77
2021/01/09 09:35:29;;;;;;;11.23;7.43;;;-7.10;65.30;;;;;;5152790;28;20070;-77
2021/01/09 09:38:03;;;;;;;13.95;7.15;;;-7.00;66.20;;;;;;5164698;28;20738;-76
2021/01/09 09:40:37;;;;;;;18.73;10.98;;;-6.80;65.50;;;;;;5164569;28;20060;-75
2021/01/09 09:43:18;;;;;;;13.43;8.50;;;-6.60;65.50;;;;;;5165434;28;20038;-76
2021/01/09 09:46:04;;;;;;;11.35;7.53;;;-6.40;65.40;;;;;;5161198;28;20050;-76
2021/01/09 09:48:39;;;;;;;12.68;7.95;;;-6.20;64.80;;;;;;5166723;28;20042;-77
2021/01/09 09:51:11;;;;;;;13.02;8.30;;;-6.10;63.30;;;;;;5163810;28;20046;-75
2021/01/09 09:53:52;;;;;;;12.90;7.97;;;-6.10;64.00;;;;;;5166171;28;20709;-75
2021/01/09 09:56:24;;;;;;;10.20;7.18;;;-6.10;64.80;;;;;;5162665;28;20049;-76
2021/01/09 09:59:03;;;;;;;9.50;6.90;;;-6.00;63.30;;;;;;5161825;28;20443;-76
2021/01/09 10:01:36;;;;;;;13.13;8.50;;;-5.80;64.40;;;;;;5162924;28;20089;-76
2021/01/09 10:04:13;;;;;;;23.35;13.75;;;-5.70;63.60;;;;;;5169328;28;20117;-75
2021/01/09 10:06:45;;;;;;;13.93;9.27;;;-5.60;64.00;;;;;;5162904;28;20064;-75
2021/01/09 10:09:19;;;;;;;16.27;10.27;;;-5.50;63.30;;;;;;5164044;28;20045;-75
2021/01/09 10:11:52;;;;;;;15.02;9.40;;;-5.40;63.30;;;;;;5163821;28;20038;-81
2021/01/09 10:14:26;;;;;;;14.30;9.20;;;-5.20;63.00;;;;;;5162793;28;20082;-80
2021/01/09 10:16:57;;;;;;;15.18;8.35;;;-5.10;63.40;;;;;;5163522;28;20108;-81
2021/01/09 10:19:29;;;;;;;11.88;6.93;;;-5.00;63.50;;;;;;5164033;28;20813;-78
2021/01/09 10:22:00;;;;;;;12.30;7.70;;;-4.80;63.30;;;;;;5160860;28;20057;-79
2021/01/09 10:24:32;;;;;;;12.65;8.05;;;-4.60;63.10;;;;;;5165532;28;20042;-78
2021/01/09 10:27:04;;;;;;;10.68;7.05;;;-4.40;62.60;;;;;;5152184;28;20049;-76
2021/01/09 10:29:35;;;;;;;13.57;7.60;;;-4.30;62.50;;;;;;5164799;28;20104;-74
2021/01/09 10:32:07;;;;;;;10.30;7.45;;;-4.30;61.50;;;;;;5164097;28;20046;-76
2021/01/09 10:34:39;;;;;;;10.98;7.85;;;-4.20;60.80;;;;;;5164233;28;20098;-75
2021/01/09 10:37:11;;;;;;;9.90;7.10;;;-4.20;59.40;;;;;;5162390;28;20421;-79
2021/01/09 10:39:45;;;;;;;11.23;7.82;;;-4.20;59.60;;;;;;5161199;28;20046;-79
2021/01/09 10:42:16;;;;;;;9.18;7.30;;;-4.10;60.60;;;;;;5149145;28;20673;-79
2021/01/09 10:44:48;;;;;;;10.73;7.32;;;-4.00;60.80;;;;;;5159277;28;20065;-78
2021/01/09 10:47:20;;;;;;;11.55;7.55;;;-3.90;59.90;;;;;;5161736;28;20781;-76
2021/01/09 10:49:51;;;;;;;10.82;7.80;;;-3.90;60.80;;;;;;5162793;28;20046;-77
2021/01/09 10:52:23;;;;;;;12.40;7.97;;;-3.80;60.70;;;;;;5166233;28;20531;-75
2021/01/09 10:54:55;;;;;;;10.93;7.53;;;-3.70;60.20;;;;;;5163878;28;20551;-75
2021/01/09 10:57:26;;;;;;;10.60;7.18;;;-3.60;60.30;;;;;;5151159;28;20459;-75
2021/01/09 10:59:58;;;;;;;14.88;8.07;;;-3.50;60.40;;;;;;5161761;28;20185;-76
2021/01/09 11:02:30;;;;;;;9.48;7.40;;;-3.40;59.40;;;;;;5164769;28;20050;-75
2021/01/09 11:05:02;;;;;;;11.25;7.05;;;-3.30;58.90;;;;;;5164511;28;20038;-76
2021/01/09 11:07:33;;;;;;;10.07;7.18;;;-3.20;57.90;;;;;;5166805;28;20042;-75
2021/01/09 11:10:05;;;;;;;15.23;7.88;;;-3.10;57.60;;;;;;5162900;28;20193;-75
2021/01/09 11:12:37;;;;;;;15.48;9.48;;;-3.00;58.10;;;;;;5162631;28;21399;-77
2021/01/09 11:15:09;;;;;;;13.48;8.52;;;-2.90;58.20;;;;;;5161581;28;20495;-75
2021/01/09 11:17:41;;;;;;;12.95;9.18;;;-2.80;58.40;;;;;;5162265;28;20061;-75
2021/01/09 11:20:14;;;;;;;16.83;9.10;;;-2.60;59.00;;;;;;5142373;28;20046;-76
2021/01/09 11:22:45;;;;;;;17.20;9.57;;;-2.60;57.00;;;;;;5158739;28;20836;-75
2021/01/09 11:25:17;;;;;;;14.27;9.88;;;-2.50;57.50;;;;;;5158035;28;20125;-76
2021/01/09 11:27:48;;;;;;;16.45;9.13;;;-2.40;56.70;;;;;;5160949;28;20042;-76
2021/01/09 11:30:20;;;;;;;16.27;9.73;;;-2.30;57.80;;;;;;5155915;28;20455;-74
2021/01/09 11:32:51;;;;;;;19.98;12.65;;;-2.20;57.60;;;;;;5148021;28;20044;-74
2021/01/09 11:35:23;;;;;;;16.65;10.73;;;-2.20;55.40;;;;;;5162631;28;20080;-74
2021/01/09 11:37:58;;;;;;;28.60;17.85;;;-2.20;57.80;;;;;;5160801;28;20037;-72
2021/01/09 11:40:29;;;;;;;38.22;21.42;;;-2.10;56.90;;;;;;5162359;28;20044;-73
2021/01/09 11:43:01;;;;;;;23.50;11.18;;;-2.10;57.80;;;;;;5161472;28;20065;-73
2021/01/09 11:45:32;;;;;;;16.77;9.52;;;-2.00;56.80;;;;;;5163334;28;20094;-74
2021/01/09 11:48:05;;;;;;;16.58;10.57;;;-2.00;54.90;;;;;;5146967;28;20070;-76
2021/01/09 11:50:37;;;;;;;19.02;13.70;;;-1.90;57.20;;;;;;5138536;28;20046;-77
2021/01/09 11:53:23;;;;;;;15.27;9.68;;;-1.80;56.80;;;;;;5147912;28;20041;-76
2021/01/09 11:55:54;;;;;;;22.15;11.05;;;-1.80;55.50;;;;;;5161385;28;20046;-75
2021/01/09 11:58:26;;;;;;;16.38;10.32;;;-1.80;56.20;;;;;;5160865;28;20124;-74
2021/01/09 12:00:57;;;;;;;15.50;9.48;;;-1.80;55.30;;;;;;5160931;28;20045;-75
2021/01/09 12:03:29;;;;;;;27.70;11.30;;;-1.60;56.50;;;;;;5163465;28;20407;-77
2021/01/09 12:06:00;;;;;;;16.30;11.63;;;-1.60;56.20;;;;;;5165946;28;20050;-74
2021/01/09 12:08:32;;;;;;;14.73;10.93;;;-1.50;55.40;;;;;;5163938;28;20037;-74
2021/01/09 12:11:04;;;;;;;16.35;10.70;;;-1.50;56.30;;;;;;5161449;28;20042;-74
2021/01/09 12:13:37;;;;;;;16.75;9.18;;;-1.60;56.30;;;;;;5162565;28;20034;-74
2021/01/09 12:16:08;;;;;;;15.27;9.32;;;-1.50;56.60;;;;;;5161496;28;20050;-73
2021/01/09 12:18:40;;;;;;;14.18;9.50;;;-1.50;57.90;;;;;;5164122;28;20041;-74
2021/01/09 12:21:13;;;;;;;12.55;9.27;;;-1.40;59.00;;;;;;5166210;28;20057;-73
2021/01/09 12:23:45;;;;;;;13.77;10.57;;;-1.20;59.00;;;;;;5167181;28;20253;-74
2021/01/09 12:26:18;;;;;;;12.40;9.05;;;-1.10;59.10;;;;;;5168438;28;20508;-73
2021/01/09 12:28:50;;;;;;;10.43;8.40;;;-1.00;59.40;;;;;;5164753;28;20045;-74
2021/01/09 12:31:35;;;;;;;11.88;8.40;;;-0.90;58.90;;;;;;5165557;28;20046;-72
2021/01/09 12:34:22;;;;;;;11.15;9.30;;;-0.90;58.50;;;;;;5166466;28;20034;-75
2021/01/09 12:36:53;;;;;;;13.30;9.55;;;-0.90;58.60;;;;;;5165111;28;20045;-73
2021/01/09 12:39:25;;;;;;;11.90;10.07;;;-0.80;59.40;;;;;;5166414;28;20467;-73
2021/01/09 12:41:57;;;;;;;11.48;8.48;;;-0.80;59.10;;;;;;5166853;28;20042;-73
2021/01/09 12:44:28;;;;;;;11.02;9.18;;;-0.70;58.60;;;;;;5164024;28;20571;-72
2021/01/09 12:47:00;;;;;;;13.27;10.40;;;-0.70;59.10;;;;;;5163154;28;20631;-72
2021/01/09 12:49:32;;;;;;;13.40;9.30;;;-0.70;58.50;;;;;;5161381;28;20070;-73
2021/01/09 12:52:04;;;;;;;11.00;8.90;;;-0.70;58.30;;;;;;5165852;28;20049;-74
2021/01/09 12:54:35;;;;;;;10.77;8.80;;;-0.70;58.40;;;;;;5165827;28;20828;-74
2021/01/09 12:57:06;;;;;;;11.65;8.68;;;-0.70;58.50;;;;;;5164340;28;20058;-73
2021/01/09 12:59:38;;;;;;;10.52;8.65;;;-0.70;58.30;;;;;;5162853;28;20693;-73
2021/01/09 13:02:09;;;;;;;13.35;9.65;;;-0.70;58.40;;;;;;5161449;28;20047;-74
2021/01/09 13:04:41;;;;;;;12.13;9.52;;;-0.70;58.90;;;;;;5163434;28;20077;-74
2021/01/09 13:07:13;;;;;;;12.82;9.98;;;-0.70;58.40;;;;;;5166567;28;20052;-73
2021/01/09 13:09:44;;;;;;;12.50;9.63;;;-0.70;59.30;;;;;;5166941;28;20122;-74